D/T METAR WX W/DIR W/SPE G/SPE TEMP DEWP
25/02/20 15:20 EGNM 251520Z 24012KT 9999 SCT011 SCT016CB 03/02 Q0992 WSW (240°) 13.8mph 3°C 2°C
25/02/20 14:50 EGNM 251450Z 25011KT 9999 VCSH FEW010 SCT015CB 03/02 Q0992 VCSH WSW (250°) 12.7mph 3°C 2°C
25/02/20 14:20 EGNM 251420Z 22013KT 9999 -SHRASN SCT015CB SCT020 03/02 Q0993 -SHRA -SHSN SW (220°) 15.0mph 3°C 2°C
25/02/20 13:50 EGNM 251350Z 25015G26KT 9999 -SHRASN FEW019CB SCT025 03/01 Q0993 -SHRA -SHSN WSW (250°) 17.3mph 29.9mph 3°C 1°C
25/02/20 13:20 EGNM 251320Z 26011KT 9999 VCSH FEW020CB SCT030 04/02 Q0993 VCSH W (260°) 12.7mph 4°C 2°C
25/02/20 12:20 EGNM 251220Z 26010KT 9999 SCT025CB 04/02 Q0994 W (260°) 11.5mph 4°C 2°C
25/02/20 11:50 EGNM 251150Z 27018KT 9999 -SHRA SCT025CB 03/01 Q0995 -SHRA W (270°) 20.7mph 3°C 1°C
25/02/20 10:50 EGNM 251050Z 27008KT 250V310 9999 -SHRA SCT012 SCT018 03/02 Q0995 -SHRA W (270°) 9.2mph 3°C 2°C
25/02/20 10:20 EGNM 251020Z 26014KT 9999 -SHRA SCT012 SCT023 03/02 Q0995 -SHRA W (260°) 16.1mph 3°C 2°C
25/02/20 09:50 EGNM 250950Z 26010KT 9999 -SHRA SCT011 SCT019 03/02 Q0995 -SHRA W (260°) 11.5mph 3°C 2°C
25/02/20 08:50 EGNM 250850Z 24010KT 9999 -SHRA SCT008 SCT013 02/01 Q0995 -SHRA WSW (240°) 11.5mph 2°C 1°C
25/02/20 08:20 EGNM 250820Z 23006KT 200V260 9000 SCT007 SCT012 02/01 Q0996 SW (230°) 6.9mph 2°C 1°C
25/02/20 07:20 EGNM 250720Z 23009KT 7000 -SHSN SCT009 BKN011 01/01 Q0995 -SHSN SW (230°) 10.4mph 1°C 1°C
25/02/20 06:50 EGNM 250650Z 24018KT 7000 SHSN SCT009 BKN011 01/00 Q0996 SHSN WSW (240°) 20.7mph 1°C 0°C
25/02/20 06:20 EGNM 250620Z 24018KT 9999 -SHRASN SCT011 02/01 Q0996 -SHRA -SHSN WSW (240°) 20.7mph 2°C 1°C
25/02/20 05:50 EGNM 250550Z 25012KT 9999 VCSH FEW015 03/01 Q0996 VCSH WSW (250°) 13.8mph 3°C 1°C
25/02/20 05:20 EGNM 250520Z 25015KT 9999 VCSH SCT012 03/01 Q0996 VCSH WSW (250°) 17.3mph 3°C 1°C
25/02/20 04:50 EGNM 250450Z 25014KT 9999 -SHRASN SCT011 SCT022 03/01 Q0996 -SHRA -SHSN WSW (250°) 16.1mph 3°C 1°C
25/02/20 04:20 EGNM 250420Z 26013KT 9999 VCSH SCT011 03/01 Q0997 VCSH W (260°) 15.0mph 3°C 1°C
25/02/20 03:50 EGNM 250350Z 25016KT 9999 -SHRASN BKN012 03/01 Q0997 -SHRA -SHSN WSW (250°) 18.4mph 3°C 1°C
25/02/20 03:20 EGNM 250320Z 26017G27KT 9999 -SHRASN BKN010 02/01 Q0997 -SHRA -SHSN W (260°) 19.6mph 31.1mph 2°C 1°C
25/02/20 02:50 EGNM 250250Z 25018KT 9999 VCSH SCT016 03/01 Q0997 VCSH WSW (250°) 20.7mph 3°C 1°C
25/02/20 02:20 EGNM 250220Z 26016KT 9999 -SHRASN SCT018 03/01 Q0998 -SHRA -SHSN W (260°) 18.4mph 3°C 1°C
25/02/20 01:50 EGNM 250150Z 26016G26KT 9000 -SHRASN SCT014 BKN018 03/02 Q0998 -SHRA -SHSN W (260°) 18.4mph 29.9mph 3°C 2°C
25/02/20 01:20 EGNM 250120Z 27015KT 9999 VCSH SCT011 SCT020 03/02 Q0999 VCSH W (270°) 17.3mph 3°C 2°C
25/02/20 00:50 EGNM 250050Z 26015KT 9999 VCSH SCT020 SCT030 03/01 Q0999 VCSH W (260°) 17.3mph 3°C 1°C
25/02/20 00:20 EGNM 250020Z 26019KT 9999 FEW020 03/01 Q0999 W (260°) 21.9mph 3°C 1°C
24/02/20 23:50 EGNM 242350Z 27017KT 9999 -SHRA SCT012 03/02 Q0999 -SHRA W (270°) 19.6mph 3°C 2°C
24/02/20 23:20 EGNM 242320Z 26019KT 9999 FEW015 04/01 Q0998 W (260°) 21.9mph 4°C 1°C
24/02/20 22:50 EGNM 242250Z 26018G29KT 9999 FEW019 04/02 Q0998 W (260°) 20.7mph 33.4mph 4°C 2°C
24/02/20 22:20 EGNM 242220Z 26018KT 9999 FEW025 04/01 Q0998 W (260°) 20.7mph 4°C 1°C
24/02/20 21:50 EGNM 242150Z 27019KT 9999 FEW023 04/01 Q0998 W (270°) 21.9mph 4°C 1°C
24/02/20 21:20 EGNM 242120Z 27022KT 9999 FEW033 04/01 Q0998 W (270°) 25.3mph 4°C 1°C
24/02/20 20:50 EGNM 242050Z 26018KT 9999 FEW033 04/01 Q0999 W (260°) 20.7mph 4°C 1°C
24/02/20 20:20 EGNM 242020Z 26019KT 9999 FEW033 04/01 Q0998 W (260°) 21.9mph 4°C 1°C
24/02/20 19:50 EGNM 241950Z 26021G33KT 9999 -DZRA SCT027 04/01 Q0998 -DZ -RA W (260°) 24.2mph 38.0mph 4°C 1°C
24/02/20 19:20 EGNM 241920Z 26026G39KT 9999 -DZRA FEW014 SCT032 04/01 Q0998 -DZ -RA W (260°) 29.9mph 44.9mph 4°C 1°C
24/02/20 18:50 EGNM 241850Z 25027G43KT 9999 -DZ FEW014 SCT032 05/02 Q0997 -DZ WSW (250°) 31.1mph 49.5mph 5°C 2°C
24/02/20 18:20 EGNM 241820Z 25025G37KT 9999 -SHRA SCT016 05/02 Q0997 -SHRA WSW (250°) 28.8mph 42.6mph 5°C 2°C
24/02/20 17:50 EGNM 241750Z 25026G37KT 9999 -SHRA SCT015 SCT020 05/02 Q0997 -SHRA WSW (250°) 29.9mph 42.6mph 5°C 2°C
24/02/20 17:20 EGNM 241720Z 25025G37KT 9999 -SHRA SCT015 SCT020 05/03 Q0996 -SHRA WSW (250°) 28.8mph 42.6mph 5°C 3°C
24/02/20 16:50 EGNM 241650Z 25026G39KT 9999 VCSH SCT015 SCT020 06/03 Q0996 VCSH WSW (250°) 29.9mph 44.9mph 6°C 3°C
24/02/20 16:20 EGNM 241620Z 26028G40KT 9999 -DZRA SCT015 SCT030 06/04 Q0996 -DZ -RA W (260°) 32.2mph 46.0mph 6°C 4°C
24/02/20 15:50 EGNM 241550Z 25026G44KT 9999 -DZRA SCT015 SCT030 08/05 Q0996 -DZ -RA WSW (250°) 29.9mph 50.6mph 8°C 5°C
24/02/20 15:20 EGNM 241520Z 24026G37KT 9999 -RA SCT018 SCT030 09/07 Q0995 -RA WSW (240°) 29.9mph 42.6mph 9°C 7°C
24/02/20 14:50 EGNM 241450Z 24021G31KT 9999 -RA SCT010 SCT017 09/07 Q0995 -RA WSW (240°) 24.2mph 35.7mph 9°C 7°C
24/02/20 14:20 EGNM 241420Z 24018G31KT 9999 -RA SCT010 SCT018 10/08 Q0995 -RA WSW (240°) 20.7mph 35.7mph 10°C 8°C
24/02/20 13:50 EGNM 241350Z 24020KT 9999 -RADZ SCT009 BKN018 10/09 Q0995 -RA -DZ WSW (240°) 23.0mph 10°C 9°C